Time;durP1;ratioP1;P1;durP2;ratioP2;P2;SDS_P1;SDS_P2;PMS_P1;PMS_P2;Temp;Humidity;BMP_temperature;BMP_pressure;BME280_temperature;BME280_humidity;BME280_pressure;Samples;Min_cycle;Max_cycle;Signal;HPM_P1;HPM_P2
2022/06/24 00:02:13;;;;;;;46.95;27.15;;;;;;;;;;6160223;23;20022;-83
2022/06/24 00:04:40;;;;;;;45.67;28.25;;;;;;;;;;6158271;23;20022;-82
2022/06/24 00:07:14;;;;;;;35.35;26.25;;;;;;;;;;6159332;23;20033;-81
2022/06/24 00:09:41;;;;;;;38.87;26.53;;;;;;;;;;6161183;23;20021;-81
2022/06/24 00:12:10;;;;;;;34.25;25.63;;;;;;;;;;6159216;23;20014;-81
2022/06/24 00:14:41;;;;;;;38.13;27.20;;;;;;;;;;6158063;23;20325;-81
2022/06/24 00:17:14;;;;;;;39.88;26.75;;;;;;;;;;6160258;23;20108;-83
2022/06/24 00:19:58;;;;;;;36.65;24.77;;;;;;;;;;6160631;23;20018;-84
2022/06/24 00:22:27;;;;;;;35.33;25.33;;;;;;;;;;6159686;23;20456;-84
2022/06/24 00:25:11;;;;;;;35.33;22.42;;;;;;;;;;6159632;23;20018;-82
2022/06/24 00:27:43;;;;;;;26.02;16.58;;;;;;;;;;6159820;23;20163;-83
2022/06/24 00:30:14;;;;;;;23.10;16.48;;;;;;;;;;6160065;23;20172;-84
2022/06/24 00:32:42;;;;;;;29.65;19.50;;;;;;;;;;6159338;23;20010;-83
2022/06/24 00:35:13;;;;;;;33.38;19.88;;;;;;;;;;6158948;23;20721;-84
2022/06/24 00:37:41;;;;;;;34.10;20.63;;;;;;;;;;6158862;23;20018;-83
2022/06/24 00:40:11;;;;;;;31.42;17.98;;;;;;;;;;6159678;23;20022;-82
2022/06/24 00:42:40;;;;;;;30.33;19.13;;;;;;;;;;6160482;23;20026;-83
2022/06/24 00:45:15;;;;;;;32.80;21.10;;;;;;;;;;6158250;23;20094;-83
2022/06/24 00:47:42;;;;;;;30.90;20.23;;;;;;;;;;6158949;23;20028;-83
2022/06/24 00:50:18;;;;;;;28.42;18.25;;;;;;;;;;6159092;23;20409;-82
2022/06/24 00:52:47;;;;;;;28.95;17.98;;;;;;;;;;6158609;23;20030;-83
2022/06/24 00:55:19;;;;;;;23.73;17.30;;;;;;;;;;6158958;23;20097;-83
2022/06/24 00:57:46;;;;;;;23.33;17.33;;;;;;;;;;6160149;23;20813;-82
2022/06/24 01:00:14;;;;;;;32.92;19.05;;;;;;;;;;6158898;23;20014;-82
2022/06/24 01:02:42;;;;;;;21.83;17.02;;;;;;;;;;6159164;23;20038;-82
2022/06/24 01:05:11;;;;;;;26.30;16.90;;;;;;;;;;6158318;23;20018;-82
2022/06/24 01:07:39;;;;;;;18.88;14.75;;;;;;;;;;6157963;23;20017;-82
2022/06/24 01:10:08;;;;;;;23.55;17.83;;;;;;;;;;6157806;23;20018;-82
2022/06/24 01:12:36;;;;;;;34.45;19.33;;;;;;;;;;6160260;23;20036;-82
2022/06/24 01:15:04;;;;;;;34.25;22.15;;;;;;;;;;6158793;23;20022;-82
2022/06/24 01:17:37;;;;;;;88.40;26.50;;;;;;;;;;6157258;23;20018;-82
2022/06/24 01:20:13;;;;;;;33.03;18.00;;;;;;;;;;6157531;23;20018;-82
2022/06/24 01:22:43;;;;;;;48.17;19.65;;;;;;;;;;6157002;23;20490;-82
2022/06/24 01:25:11;;;;;;;32.67;17.58;;;;;;;;;;6156700;23;20025;-82
2022/06/24 01:27:50;;;;;;;36.13;17.45;;;;;;;;;;6156740;23;20444;-82
2022/06/24 01:37:41;;;;;;;35.22;15.10;;;;;;;;;;6158701;23;20022;-83
2022/06/24 01:40:22;;;;;;;61.15;16.83;;;;;;;;;;6037930;23;20027;-83
2022/06/24 01:43:03;;;;;;;26.38;12.95;;;;;;;;;;6038295;23;20687;-83
2022/06/24 02:27:09;;;;;;;;;;;;;;;;;;;;;
2022/06/24 02:29:56;;;;;;;7.13;2.80;;;;;;;;;;5883908;24;20034;-81
2022/06/24 02:32:44;;;;;;;10.38;2.95;;;;;;;;;;5907049;24;20017;-81
2022/06/24 02:35:12;;;;;;;8.43;3.60;;;;;;;;;;5903397;24;20041;-81
2022/06/24 02:37:54;;;;;;;11.57;3.20;;;;;;;;;;5925701;24;20486;-82
2022/06/24 02:54:44;;;;;;;14.98;3.95;;;;;;;;;;5925994;24;20034;-82
2022/06/24 03:01:19;;;;;;;;;;;;;;;;;;;;;
2022/06/24 03:07:57;;;;;;;17.15;4.68;;;;;;;;;;5908095;24;20445;-83
2022/06/24 03:10:33;;;;;;;13.95;4.07;;;;;;;;;;5903836;24;20440;-83
2022/06/24 03:13:04;;;;;;;8.75;3.88;;;;;;;;;;5902834;24;20021;-82
2022/06/24 03:15:40;;;;;;;11.45;4.43;;;;;;;;;;5902945;24;20070;-83
2022/06/24 03:18:18;;;;;;;10.82;4.40;;;;;;;;;;5955328;23;20054;-83
2022/06/24 03:21:15;;;;;;;;;;;;;;;;;;;;;
2022/06/24 03:23:57;;;;;;;17.95;4.57;;;;;;;;;;6008620;23;20554;-83
2022/06/24 03:26:47;;;;;;;16.20;4.95;;;;;;;;;;5985849;23;20035;-83
2022/06/24 03:29:53;;;;;;;11.57;4.55;;;;;;;;;;5987715;23;20467;-83
2022/06/24 03:32:44;;;;;;;11.68;4.15;;;;;;;;;;5989242;23;20028;-83
2022/06/24 03:35:15;;;;;;;17.35;5.60;;;;;;;;;;5986357;23;20497;-82
2022/06/24 03:37:51;;;;;;;16.10;5.55;;;;;;;;;;6077840;23;20074;-83
2022/06/24 03:40:20;;;;;;;13.52;5.22;;;;;;;;;;6102304;23;20081;-83
2022/06/24 03:42:48;;;;;;;23.55;6.22;;;;;;;;;;6101784;23;20110;-83
2022/06/24 03:45:20;;;;;;;21.95;6.00;;;;;;;;;;6101888;23;20015;-82
2022/06/24 03:47:50;;;;;;;11.50;4.83;;;;;;;;;;6101646;23;20053;-83
2022/06/24 03:50:41;;;;;;;16.70;5.38;;;;;;;;;;6127989;23;20027;-82
2022/06/24 03:53:38;;;;;;;;;;;;;;;;;;;;;
2022/06/24 03:56:10;;;;;;;10.50;4.53;;;;;;;;;;6127764;23;20033;-82
2022/06/24 03:58:37;;;;;;;10.93;4.30;;;;;;;;;;6101663;23;20453;-81
2022/06/24 04:01:07;;;;;;;6.32;3.53;;;;;;;;;;6102824;23;20022;-82
2022/06/24 04:03:35;;;;;;;12.38;4.93;;;;;;;;;;6101984;23;20015;-82
2022/06/24 04:06:02;;;;;;;37.17;8.05;;;;;;;;;;6101397;23;20491;-82
2022/06/24 04:08:33;;;;;;;17.25;5.95;;;;;;;;;;6101644;23;20025;-82
2022/06/24 04:11:15;;;;;;;23.80;6.28;;;;;;;;;;6102079;23;20511;-82
2022/06/24 04:13:43;;;;;;;16.38;5.60;;;;;;;;;;6101681;23;20030;-81
2022/06/24 04:16:11;;;;;;;8.90;4.15;;;;;;;;;;6101815;23;20721;-82
2022/06/24 04:18:38;;;;;;;6.97;3.92;;;;;;;;;;6101361;23;20019;-81
2022/06/24 04:21:12;;;;;;;7.13;3.88;;;;;;;;;;6101595;23;20429;-81
2022/06/24 04:23:40;;;;;;;6.35;4.10;;;;;;;;;;6127793;23;20449;-81
2022/06/24 04:26:07;;;;;;;10.93;4.97;;;;;;;;;;6102480;23;20022;-81
2022/06/24 04:28:35;;;;;;;11.82;5.05;;;;;;;;;;6103453;23;20025;-81
2022/06/24 04:31:02;;;;;;;27.13;6.35;;;;;;;;;;6103382;23;20022;-81
2022/06/24 04:33:30;;;;;;;17.02;5.80;;;;;;;;;;6102423;23;20337;-82
2022/06/24 04:35:59;;;;;;;14.45;5.47;;;;;;;;;;6103801;23;20022;-81
2022/06/24 04:38:27;;;;;;;15.18;5.75;;;;;;;;;;6103273;23;20095;-81
2022/06/24 04:40:54;;;;;;;23.35;6.72;;;;;;;;;;6103047;23;20011;-81
2022/06/24 04:43:21;;;;;;;11.23;5.68;;;;;;;;;;6102460;23;20019;-82
2022/06/24 04:45:49;;;;;;;21.70;7.00;;;;;;;;;;6102837;23;20022;-81
2022/06/24 04:48:19;;;;;;;13.80;6.25;;;;;;;;;;6103496;23;20025;-81
2022/06/24 04:50:47;;;;;;;14.25;5.75;;;;;;;;;;6103572;23;20725;-81
2022/06/24 04:53:14;;;;;;;10.48;5.50;;;;;;;;;;6103175;23;20054;-81
2022/06/24 04:55:41;;;;;;;14.52;6.60;;;;;;;;;;6102966;23;20022;-82
2022/06/24 04:58:09;;;;;;;20.50;6.97;;;;;;;;;;6103323;23;20098;-81
2022/06/24 05:00:37;;;;;;;17.92;7.38;;;;;;;;;;6103160;23;20409;-81
2022/06/24 05:03:05;;;;;;;21.88;7.20;;;;;;;;;;6102574;23;20037;-81
2022/06/24 05:05:32;;;;;;;17.77;6.43;;;;;;;;;;6107163;23;20018;-81
2022/06/24 05:08:02;;;;;;;11.05;5.40;;;;;;;;;;6132324;23;20022;-81
2022/06/24 05:10:29;;;;;;;30.45;8.50;;;;;;;;;;6132671;23;20077;-82
2022/06/24 05:12:58;;;;;;;10.70;5.93;;;;;;;;;;6132964;23;20096;-81
2022/06/24 05:15:25;;;;;;;15.23;6.78;;;;;;;;;;6132594;23;20045;-81
2022/06/24 05:17:53;;;;;;;16.35;7.00;;;;;;;;;;6132807;23;20022;-81
2022/06/24 05:20:23;;;;;;;16.77;6.90;;;;;;;;;;6133360;23;20026;-82
2022/06/24 05:22:51;;;;;;;17.20;6.45;;;;;;;;;;6132325;23;20014;-82
2022/06/24 05:25:18;;;;;;;13.70;7.00;;;;;;;;;;6131952;23;20471;-81
2022/06/24 05:27:46;;;;;;;10.70;5.88;;;;;;;;;;6132214;23;20022;-81
2022/06/24 05:30:24;;;;;;;12.38;5.82;;;;;;;;;;6131238;23;20077;-81
2022/06/24 05:32:52;;;;;;;14.55;6.32;;;;;;;;;;6132062;23;20018;-82
2022/06/24 05:35:19;;;;;;;20.15;8.30;;;;;;;;;;6132464;23;20025;-82
2022/06/24 05:37:46;;;;;;;23.33;8.05;;;;;;;;;;6132157;23;20363;-82
2022/06/24 05:40:14;;;;;;;12.73;6.68;;;;;;;;;;6132371;23;20034;-82
2022/06/24 05:42:44;;;;;;;10.32;5.97;;;;;;;;;;6158189;23;20485;-81
2022/06/24 05:45:13;;;;;;;27.67;8.00;;;;;;;;;;6132804;23;20494;-81
2022/06/24 05:47:41;;;;;;;22.75;7.47;;;;;;;;;;6132220;23;20057;-82
2022/06/24 05:50:09;;;;;;;66.80;11.00;;;;;;;;;;6132286;23;20811;-82
2022/06/24 05:55:22;;;;;;;10.38;6.05;;;;;;;;;;6158333;23;20022;-81
2022/06/24 05:57:49;;;;;;;39.20;9.43;;;;;;;;;;6133168;23;20069;-82
2022/06/24 06:00:19;;;;;;;17.45;8.60;;;;;;;;;;6132577;23;20376;-81
2022/06/24 06:02:46;;;;;;;40.85;10.02;;;;;;;;;;6132389;23;20022;-82
2022/06/24 06:05:19;;;;;;;19.73;8.70;;;;;;;;;;6156156;23;20727;-82
2022/06/24 06:07:47;;;;;;;22.27;9.60;;;;;;;;;;6132090;23;20349;-81
2022/06/24 06:10:14;;;;;;;30.33;10.07;;;;;;;;;;6133041;23;20124;-82
2022/06/24 06:12:44;;;;;;;23.83;10.30;;;;;;;;;;6156794;23;20739;-82
2022/06/24 06:15:11;;;;;;;20.48;9.48;;;;;;;;;;6157162;23;20026;-82
2022/06/24 06:17:38;;;;;;;12.00;7.38;;;;;;;;;;6132862;23;20048;-82
2022/06/24 06:20:06;;;;;;;11.68;6.75;;;;;;;;;;6132905;23;20088;-82
2022/06/24 06:22:33;;;;;;;24.70;9.63;;;;;;;;;;6132351;23;20494;-83
2022/06/24 06:25:01;;;;;;;11.02;6.97;;;;;;;;;;6133828;23;20069;-83
2022/06/24 06:27:28;;;;;;;13.52;7.70;;;;;;;;;;6132765;23;20018;-83
2022/06/24 06:29:59;;;;;;;16.17;7.90;;;;;;;;;;6134337;23;20052;-83
2022/06/24 06:32:26;;;;;;;9.13;5.82;;;;;;;;;;6132220;23;20024;-82
2022/06/24 06:34:59;;;;;;;11.15;6.90;;;;;;;;;;6133693;23;20029;-82
2022/06/24 06:37:27;;;;;;;15.80;8.57;;;;;;;;;;6132222;23;21158;-82
2022/06/24 06:39:54;;;;;;;11.45;7.60;;;;;;;;;;6132239;23;20022;-82
2022/06/24 06:42:22;;;;;;;13.13;8.13;;;;;;;;;;6132307;23;20050;-83
2022/06/24 06:44:49;;;;;;;9.50;7.22;;;;;;;;;;6132181;23;20022;-82
2022/06/24 06:47:17;;;;;;;8.80;6.38;;;;;;;;;;6131517;23;20026;-82
2022/06/24 06:49:45;;;;;;;12.15;6.78;;;;;;;;;;6131515;23;20125;-83
2022/06/24 06:52:12;;;;;;;8.52;6.70;;;;;;;;;;6132507;23;20028;-83
2022/06/24 06:54:41;;;;;;;11.10;7.13;;;;;;;;;;6136458;23;20024;-83
2022/06/24 06:57:20;;;;;;;11.90;7.18;;;;;;;;;;6140217;23;20022;-83
2022/06/24 06:59:49;;;;;;;10.30;7.03;;;;;;;;;;6133719;23;20033;-82
2022/06/24 07:02:16;;;;;;;13.48;7.47;;;;;;;;;;6133591;23;20862;-82
2022/06/24 07:04:44;;;;;;;15.57;9.07;;;;;;;;;;6133084;23;20022;-83
2022/06/24 07:07:12;;;;;;;10.98;8.07;;;;;;;;;;6132868;23;20475;-82
2022/06/24 07:09:40;;;;;;;11.55;8.15;;;;;;;;;;6132147;23;20026;-83
2022/06/24 07:12:07;;;;;;;18.65;8.95;;;;;;;;;;6131703;23;20090;-83
2022/06/24 07:14:34;;;;;;;19.65;10.45;;;;;;;;;;6132401;23;20014;-82
2022/06/24 07:17:02;;;;;;;16.67;9.85;;;;;;;;;;6156142;23;20412;-83
2022/06/24 07:19:29;;;;;;;14.02;9.32;;;;;;;;;;6132022;23;20022;-83
2022/06/24 07:21:57;;;;;;;26.70;11.80;;;;;;;;;;6132168;23;20018;-83
2022/06/24 07:24:24;;;;;;;14.95;9.63;;;;;;;;;;6156522;23;20463;-83
2022/06/24 07:26:51;;;;;;;19.70;11.13;;;;;;;;;;6131770;23;20022;-83
2022/06/24 07:29:19;;;;;;;24.10;11.48;;;;;;;;;;6156301;23;20464;-83
2022/06/24 07:31:48;;;;;;;19.50;11.15;;;;;;;;;;6156119;23;20058;-83
2022/06/24 07:34:26;;;;;;;19.63;12.07;;;;;;;;;;6156256;23;20056;-83
2022/06/24 07:36:54;;;;;;;20.73;12.63;;;;;;;;;;6155488;23;20022;-83
2022/06/24 07:39:21;;;;;;;36.45;13.85;;;;;;;;;;6156416;23;20147;-83
2022/06/24 07:41:49;;;;;;;23.67;14.10;;;;;;;;;;6156486;23;20077;-83
2022/06/24 07:44:17;;;;;;;13.93;10.70;;;;;;;;;;6155971;23;20021;-82
2022/06/24 07:46:45;;;;;;;18.83;11.75;;;;;;;;;;6155979;23;20026;-82
2022/06/24 07:49:12;;;;;;;21.95;12.18;;;;;;;;;;6155688;23;20498;-83
2022/06/24 07:51:40;;;;;;;32.92;13.93;;;;;;;;;;6155998;23;20018;-83
2022/06/24 07:54:13;;;;;;;20.95;11.77;;;;;;;;;;6156182;23;20022;-83
2022/06/24 07:56:59;;;;;;;29.58;14.80;;;;;;;;;;6156233;23;20053;-82
2022/06/24 07:59:29;;;;;;;27.13;13.75;;;;;;;;;;6156452;23;20464;-82
2022/06/24 08:01:57;;;;;;;21.48;12.27;;;;;;;;;;6157144;23;20026;-83
2022/06/24 08:04:25;;;;;;;19.70;12.25;;;;;;;;;;6157725;23;20452;-82
2022/06/24 08:06:53;;;;;;;21.92;13.25;;;;;;;;;;6156902;23;20041;-83
2022/06/24 08:09:21;;;;;;;23.35;13.82;;;;;;;;;;6157359;23;20077;-83
2022/06/24 08:11:48;;;;;;;22.17;12.35;;;;;;;;;;6157452;23;20848;-82
2022/06/24 08:14:16;;;;;;;15.98;11.52;;;;;;;;;;6157232;23;20081;-83
2022/06/24 08:16:44;;;;;;;22.58;12.15;;;;;;;;;;6157742;23;20022;-83
2022/06/24 08:19:14;;;;;;;21.98;11.48;;;;;;;;;;6157376;23;20022;-83
2022/06/24 08:21:42;;;;;;;16.08;11.13;;;;;;;;;;6157848;23;20052;-83
2022/06/24 08:24:10;;;;;;;18.35;12.13;;;;;;;;;;6157456;23;20022;-83
2022/06/24 08:26:37;;;;;;;25.10;12.77;;;;;;;;;;6156802;23;20026;-83
2022/06/24 08:29:09;;;;;;;19.63;11.70;;;;;;;;;;6158781;23;20141;-82
2022/06/24 08:31:37;;;;;;;22.83;13.00;;;;;;;;;;6157479;23;20021;-83
2022/06/24 08:34:04;;;;;;;19.35;11.48;;;;;;;;;;6157497;23;20033;-83
2022/06/24 08:36:32;;;;;;;17.67;12.25;;;;;;;;;;6157126;23;20021;-83
2022/06/24 08:38:59;;;;;;;22.52;12.68;;;;;;;;;;6157301;23;20018;-83
2022/06/24 08:41:27;;;;;;;19.45;13.85;;;;;;;;;;6157103;23;20463;-83
2022/06/24 08:43:55;;;;;;;20.20;13.55;;;;;;;;;;6157432;23;20022;-83
2022/06/24 08:46:25;;;;;;;18.92;13.57;;;;;;;;;;6157583;23;20479;-83
2022/06/24 08:48:58;;;;;;;18.35;13.77;;;;;;;;;;6157345;23;20029;-83
2022/06/24 08:51:27;;;;;;;20.45;15.07;;;;;;;;;;6156805;23;20021;-83
2022/06/24 08:54:00;;;;;;;24.38;15.30;;;;;;;;;;6157265;23;20018;-83
2022/06/24 08:56:52;;;;;;;23.13;16.17;;;;;;;;;;6157439;23;20026;-83
2022/06/24 08:59:19;;;;;;;23.40;16.38;;;;;;;;;;6159039;23;20044;-83
2022/06/24 09:01:47;;;;;;;24.50;17.23;;;;;;;;;;6157059;23;20459;-82
2022/06/24 09:04:14;;;;;;;24.63;17.85;;;;;;;;;;6157456;23;20081;-83
2022/06/24 09:06:42;;;;;;;24.30;18.88;;;;;;;;;;6156721;23;20933;-82
2022/06/24 09:09:10;;;;;;;27.52;19.60;;;;;;;;;;6157224;23;20026;-82
2022/06/24 09:11:39;;;;;;;30.85;19.90;;;;;;;;;;6156577;23;20042;-82
2022/06/24 09:14:07;;;;;;;27.33;18.48;;;;;;;;;;6157177;23;20084;-82
2022/06/24 09:16:38;;;;;;;28.17;20.40;;;;;;;;;;6156411;23;20018;-82
2022/06/24 09:19:15;;;;;;;26.05;18.75;;;;;;;;;;6157498;23;20026;-82
2022/06/24 09:21:43;;;;;;;25.20;17.63;;;;;;;;;;6156929;23;20081;-83
2022/06/24 09:24:11;;;;;;;24.00;18.15;;;;;;;;;;6156958;23;20065;-83
2022/06/24 09:26:39;;;;;;;29.38;18.73;;;;;;;;;;6158186;23;20538;-82
2022/06/24 09:29:08;;;;;;;26.52;19.63;;;;;;;;;;6156883;23;20073;-82
2022/06/24 09:31:36;;;;;;;15.75;13.18;;;;;;;;;;6156827;23;20022;-82
2022/06/24 09:34:06;;;;;;;13.05;9.88;;;;;;;;;;6157001;23;20021;-82
2022/06/24 09:36:33;;;;;;;13.25;9.68;;;;;;;;;;6132670;23;20726;-82
2022/06/24 09:58:31;;;;;;;6.50;4.30;;;;;;;;;;5916033;24;20079;-83
2022/06/24 10:00:58;;;;;;;7.47;5.18;;;;;;;;;;5953755;24;20037;-81
2022/06/24 10:03:40;;;;;;;8.27;5.18;;;;;;;;;;5953923;24;20060;-81
2022/06/24 10:06:23;;;;;;;8.65;6.93;;;;;;;;;;5953326;23;20064;-82
2022/06/24 10:09:05;;;;;;;11.05;7.75;;;;;;;;;;5952291;24;20871;-81
2022/06/24 10:11:38;;;;;;;10.68;7.78;;;;;;;;;;5953187;24;20029;-81
2022/06/24 10:14:22;;;;;;;9.10;7.13;;;;;;;;;;5953364;24;20117;-81
2022/06/24 10:17:03;;;;;;;9.38;7.53;;;;;;;;;;5953408;24;20747;-82
2022/06/24 10:19:45;;;;;;;12.60;6.63;;;;;;;;;;5997914;23;20885;-81
2022/06/24 10:22:31;;;;;;;8.50;5.97;;;;;;;;;;6038464;23;20031;-80
2022/06/24 10:25:01;;;;;;;8.05;7.03;;;;;;;;;;6038415;23;20035;-81
2022/06/24 10:27:47;;;;;;;11.07;6.78;;;;;;;;;;6038240;23;20114;-81
2022/06/24 10:30:34;;;;;;;10.93;7.35;;;;;;;;;;6038401;23;20035;-81
2022/06/24 10:33:16;;;;;;;12.18;7.90;;;;;;;;;;6038360;23;20073;-82
2022/06/24 10:35:57;;;;;;;11.15;8.85;;;;;;;;;;6107184;23;20089;-81
2022/06/24 10:38:25;;;;;;;11.27;8.73;;;;;;;;;;6157250;23;20022;-82
2022/06/24 10:40:56;;;;;;;15.45;9.18;;;;;;;;;;6158010;23;20037;-81
2022/06/24 11:27:32;;;;;;;13.10;9.93;;;;;;;;;;6136740;22;3865906;-85
2022/06/24 11:30:00;;;;;;;12.82;9.02;;;;;;;;;;6249666;22;20071;-84
2022/06/24 11:32:27;;;;;;;12.93;9.05;;;;;;;;;;6249983;22;20048;-83
2022/06/24 11:34:55;;;;;;;15.63;10.88;;;;;;;;;;6249637;22;20116;-85
2022/06/24 11:37:23;;;;;;;12.05;9.77;;;;;;;;;;6251474;22;20025;-84
2022/06/24 11:39:54;;;;;;;13.70;10.57;;;;;;;;;;6250637;22;20119;-84
2022/06/24 11:42:24;;;;;;;15.80;11.50;;;;;;;;;;6251294;22;20098;-84
2022/06/24 11:44:52;;;;;;;15.73;11.98;;;;;;;;;;6251207;22;20032;-85
2022/06/24 11:47:32;;;;;;;17.40;11.73;;;;;;;;;;6249550;22;20021;-85
2022/06/24 11:50:03;;;;;;;22.10;14.75;;;;;;;;;;6249358;22;20102;-86
2022/06/24 11:52:44;;;;;;;15.75;10.10;;;;;;;;;;6250520;22;20025;-86
2022/06/24 12:09:31;;;;;;;;;;;;;;;;;;;;;
2022/06/24 12:12:14;;;;;;;31.75;18.63;;;;;;;;;;6185182;22;20025;-84
2022/06/24 12:14:54;;;;;;;24.88;17.48;;;;;;;;;;6229365;22;20012;-84
2022/06/24 12:17:30;;;;;;;27.35;17.98;;;;;;;;;;6230784;22;20071;-84
2022/06/24 12:20:21;;;;;;;19.20;12.48;;;;;;;;;;6232906;22;20082;-83
2022/06/24 12:23:14;;;;;;;30.67;20.60;;;;;;;;;;6230289;22;20491;-83
2022/06/24 12:25:47;;;;;;;22.13;15.43;;;;;;;;;;6230180;22;20016;-84
2022/06/24 12:28:17;;;;;;;28.88;20.60;;;;;;;;;;6256810;22;20021;-83
2022/06/24 12:30:55;;;;;;;19.23;13.88;;;;;;;;;;6229366;22;20048;-83
2022/06/24 12:33:43;;;;;;;37.50;22.10;;;;;;;;;;6223493;22;20028;-83
2022/06/24 12:36:15;;;;;;;31.52;22.40;;;;;;;;;;6149604;22;20009;-83
2022/06/24 12:38:55;;;;;;;14.23;10.32;;;;;;;;;;6224726;22;20024;-83
2022/06/24 12:41:41;;;;;;;23.67;17.02;;;;;;;;;;6250966;22;20504;-83
2022/06/24 12:44:12;;;;;;;24.27;17.10;;;;;;;;;;6224179;22;20012;-84
2022/06/24 12:52:43;;;;;;;22.52;17.48;;;;;;;;;;6249408;22;20067;-83
2022/06/24 12:55:20;;;;;;;17.88;15.43;;;;;;;;;;6222620;22;20068;-83
2022/06/24 12:57:54;;;;;;;23.00;18.08;;;;;;;;;;6222959;22;20021;-84
2022/06/24 13:00:22;;;;;;;36.70;26.15;;;;;;;;;;6223331;22;20012;-84
2022/06/24 13:02:56;;;;;;;26.00;17.95;;;;;;;;;;6223698;22;20104;-83
2022/06/24 13:05:28;;;;;;;24.88;19.20;;;;;;;;;;6223113;22;20027;-83
2022/06/24 13:07:57;;;;;;;26.50;20.02;;;;;;;;;;6223561;22;20046;-83
2022/06/24 13:10:30;;;;;;;28.40;21.30;;;;;;;;;;6224886;22;20028;-83
2022/06/24 13:13:05;;;;;;;25.67;20.50;;;;;;;;;;6250172;22;20532;-83
2022/06/24 13:15:35;;;;;;;28.15;19.88;;;;;;;;;;6250354;22;20051;-83
2022/06/24 13:18:10;;;;;;;20.85;17.63;;;;;;;;;;6223380;22;20025;-83
2022/06/24 13:20:39;;;;;;;22.45;16.98;;;;;;;;;;6223032;22;20067;-83
2022/06/24 13:23:06;;;;;;;30.35;22.33;;;;;;;;;;6222530;22;20024;-84
2022/06/24 13:25:34;;;;;;;26.05;19.40;;;;;;;;;;6222122;22;20466;-83
2022/06/24 13:28:06;;;;;;;25.70;20.17;;;;;;;;;;6249066;22;20088;-83
2022/06/24 13:30:37;;;;;;;30.02;21.92;;;;;;;;;;6222385;22;20024;-83
2022/06/24 13:33:04;;;;;;;35.92;26.88;;;;;;;;;;6221499;22;20806;-82
2022/06/24 13:35:34;;;;;;;26.38;21.35;;;;;;;;;;6222223;22;20012;-82
2022/06/24 13:38:01;;;;;;;22.95;17.92;;;;;;;;;;6222265;22;20020;-83
2022/06/24 13:40:35;;;;;;;24.63;20.02;;;;;;;;;;6249112;22;20025;-83
2022/06/24 13:43:20;;;;;;;25.55;19.63;;;;;;;;;;6225030;22;20687;-83
2022/06/24 13:45:53;;;;;;;25.80;19.60;;;;;;;;;;6222967;22;20020;-82
2022/06/24 13:48:24;;;;;;;24.98;19.30;;;;;;;;;;6249221;22;20067;-83
2022/06/24 13:50:56;;;;;;;26.13;20.98;;;;;;;;;;6222843;22;20497;-83
2022/06/24 13:53:33;;;;;;;21.30;14.23;;;;;;;;;;6249174;22;20458;-82
2022/06/24 13:56:09;;;;;;;20.08;16.85;;;;;;;;;;6249000;22;20021;-82
2022/06/24 13:58:42;;;;;;;21.30;16.83;;;;;;;;;;6223363;22;20846;-83
2022/06/24 14:01:19;;;;;;;22.77;15.98;;;;;;;;;;6224786;22;20128;-83
2022/06/24 14:03:53;;;;;;;17.98;14.43;;;;;;;;;;6222486;22;20027;-84
2022/06/24 14:06:36;;;;;;;19.27;14.88;;;;;;;;;;6223800;22;20036;-83
2022/06/24 14:09:04;;;;;;;17.27;13.52;;;;;;;;;;6222298;22;20017;-84
2022/06/24 14:11:36;;;;;;;12.95;10.75;;;;;;;;;;6221948;22;20104;-84
2022/06/24 14:14:05;;;;;;;15.77;11.57;;;;;;;;;;6222828;22;20036;-83
2022/06/24 14:16:42;;;;;;;14.65;9.95;;;;;;;;;;6224215;22;20027;-83
2022/06/24 14:19:35;;;;;;;12.10;10.35;;;;;;;;;;6248795;22;20118;-84
2022/06/24 14:22:20;;;;;;;14.93;11.13;;;;;;;;;;6225520;22;20031;-83
2022/06/24 14:24:54;;;;;;;19.58;11.55;;;;;;;;;;6222957;22;20024;-83
2022/06/24 14:27:39;;;;;;;14.93;11.77;;;;;;;;;;6249234;22;20021;-83
2022/06/24 14:30:14;;;;;;;15.00;10.95;;;;;;;;;;6222803;22;20017;-84
2022/06/24 14:32:42;;;;;;;13.27;10.70;;;;;;;;;;6222167;22;20009;-83
2022/06/24 14:35:27;;;;;;;14.25;11.07;;;;;;;;;;6248571;22;20012;-84
2022/06/24 14:40:53;;;;;;;14.88;8.95;;;;;;;;;;6249155;22;20071;-83
2022/06/24 14:43:35;;;;;;;13.25;8.82;;;;;;;;;;6224705;22;20024;-83
2022/06/24 14:46:06;;;;;;;10.05;6.50;;;;;;;;;;6223203;22;20103;-83
2022/06/24 14:48:33;;;;;;;5.25;3.63;;;;;;;;;;6250907;22;20024;-83
2022/06/24 14:51:01;;;;;;;3.58;2.88;;;;;;;;;;6223420;22;20710;-83
2022/06/24 14:53:28;;;;;;;3.67;2.65;;;;;;;;;;6252305;22;20025;-84
2022/06/24 14:55:56;;;;;;;3.28;2.50;;;;;;;;;;6222215;22;20225;-83
2022/06/24 14:58:23;;;;;;;7.68;2.50;;;;;;;;;;6221330;22;20524;-83
2022/06/24 15:00:56;;;;;;;3.50;2.20;;;;;;;;;;6252847;22;20021;-83
2022/06/24 15:03:30;;;;;;;2.92;1.80;;;;;;;;;;6226994;22;20103;-83
2022/06/24 15:05:57;;;;;;;3.65;1.67;;;;;;;;;;6249321;22;20028;-83
2022/06/24 15:08:24;;;;;;;4.68;2.30;;;;;;;;;;6222159;22;20820;-83
2022/06/24 15:10:53;;;;;;;3.47;2.20;;;;;;;;;;6249434;22;20017;-84
2022/06/24 15:13:25;;;;;;;4.00;2.15;;;;;;;;;;6223068;22;20016;-83
2022/06/24 15:15:53;;;;;;;3.35;1.88;;;;;;;;;;6222357;22;20104;-83
2022/06/24 15:18:21;;;;;;;2.50;1.70;;;;;;;;;;6248706;22;20053;-82
2022/06/24 15:20:48;;;;;;;3.95;1.73;;;;;;;;;;6248922;22;20774;-82
2022/06/24 15:23:33;;;;;;;3.10;1.95;;;;;;;;;;6225460;22;20027;-83
2022/06/24 15:26:01;;;;;;;4.13;1.90;;;;;;;;;;6221754;22;20016;-82
2022/06/24 15:28:31;;;;;;;4.68;1.85;;;;;;;;;;6248231;22;20021;-82
2022/06/24 15:30:58;;;;;;;3.88;1.95;;;;;;;;;;6221714;22;20016;-82
2022/06/24 15:33:26;;;;;;;6.03;2.47;;;;;;;;;;6221429;22;20079;-82
2022/06/24 15:36:01;;;;;;;2.05;1.80;;;;;;;;;;6248451;22;20082;-82
2022/06/24 15:38:28;;;;;;;3.47;2.05;;;;;;;;;;6248828;22;20095;-83
2022/06/24 15:40:55;;;;;;;3.20;1.70;;;;;;;;;;6221316;22;20036;-83
2022/06/24 15:43:28;;;;;;;2.05;1.70;;;;;;;;;;6248538;22;20419;-82
2022/06/24 15:46:09;;;;;;;4.82;2.00;;;;;;;;;;6223485;22;20029;-82
2022/06/24 15:48:40;;;;;;;3.38;1.95;;;;;;;;;;6248194;22;20028;-83
2022/06/24 15:51:09;;;;;;;4.53;1.90;;;;;;;;;;6220433;22;20035;-83
2022/06/24 15:53:38;;;;;;;4.05;1.90;;;;;;;;;;6221550;22;20056;-82
2022/06/24 15:56:17;;;;;;;3.22;2.00;;;;;;;;;;6247831;22;20834;-82
2022/06/24 15:58:47;;;;;;;3.35;1.98;;;;;;;;;;6247815;22;20021;-83
2022/06/24 16:01:15;;;;;;;8.20;3.42;;;;;;;;;;6220912;22;20023;-82
2022/06/24 16:04:02;;;;;;;6.53;4.35;;;;;;;;;;6247958;22;20576;-82
2022/06/24 16:06:32;;;;;;;8.15;4.80;;;;;;;;;;6220870;22;20055;-82
2022/06/24 16:09:03;;;;;;;9.10;5.32;;;;;;;;;;6249656;22;20021;-82
2022/06/24 16:11:33;;;;;;;9.48;6.15;;;;;;;;;;6223162;22;20056;-81
2022/06/24 16:14:14;;;;;;;11.65;6.47;;;;;;;;;;6223534;22;20096;-83
2022/06/24 16:16:42;;;;;;;13.50;7.50;;;;;;;;;;6222786;22;20021;-82
2022/06/24 16:19:09;;;;;;;11.00;7.53;;;;;;;;;;6249606;22;20023;-82
2022/06/24 16:21:36;;;;;;;11.07;7.93;;;;;;;;;;6222709;22;20017;-82
2022/06/24 16:24:07;;;;;;;13.60;8.10;;;;;;;;;;6249658;22;20012;-82
2022/06/24 16:29:33;;;;;;;13.90;8.75;;;;;;;;;;6250018;22;20023;-82
2022/06/24 16:32:17;;;;;;;12.80;8.77;;;;;;;;;;6222549;22;20028;-83
2022/06/24 16:34:49;;;;;;;13.55;9.32;;;;;;;;;;6223686;22;20021;-82
2022/06/24 16:37:23;;;;;;;18.97;10.90;;;;;;;;;;6223599;22;20032;-82
2022/06/24 16:39:50;;;;;;;13.57;9.25;;;;;;;;;;6249381;22;20243;-82
2022/06/24 16:42:17;;;;;;;17.08;10.15;;;;;;;;;;6221278;22;20027;-82
2022/06/24 16:44:45;;;;;;;17.67;10.18;;;;;;;;;;6222919;22;20047;-82
2022/06/24 16:47:27;;;;;;;13.30;10.15;;;;;;;;;;6249383;22;20021;-82
2022/06/24 16:49:59;;;;;;;18.40;10.93;;;;;;;;;;6222583;22;20095;-83
2022/06/24 16:52:26;;;;;;;13.65;9.70;;;;;;;;;;6221846;22;20071;-82
2022/06/24 16:57:48;;;;;;;15.60;10.60;;;;;;;;;;6218733;22;20025;-82
2022/06/24 17:00:25;;;;;;;15.07;10.30;;;;;;;;;;6216986;23;20017;-81
2022/06/24 17:02:58;;;;;;;11.15;9.45;;;;;;;;;;6217047;23;20076;-81
2022/06/24 17:05:28;;;;;;;12.75;9.85;;;;;;;;;;6217160;23;20083;-81
2022/06/24 17:08:04;;;;;;;16.27;10.73;;;;;;;;;;6216472;23;20053;-81
2022/06/24 17:10:42;;;;;;;11.57;10.05;;;;;;;;;;6217350;23;20958;-81
2022/06/24 17:13:09;;;;;;;12.00;9.48;;;;;;;;;;6217011;23;20100;-81
2022/06/24 17:15:38;;;;;;;14.82;11.02;;;;;;;;;;6217394;23;20609;-81
2022/06/24 17:18:05;;;;;;;18.27;12.23;;;;;;;;;;6218574;23;20029;-81
2022/06/24 17:20:37;;;;;;;18.30;12.32;;;;;;;;;;6218577;23;20021;-82
2022/06/24 17:23:11;;;;;;;15.30;11.95;;;;;;;;;;6218653;22;20025;-81
2022/06/24 17:25:41;;;;;;;14.88;11.05;;;;;;;;;;6217134;23;20096;-81
2022/06/24 17:28:08;;;;;;;13.68;11.27;;;;;;;;;;6218654;23;20025;-81
2022/06/24 17:30:35;;;;;;;15.20;11.30;;;;;;;;;;6216772;23;20523;-81
2022/06/24 17:33:08;;;;;;;14.63;11.02;;;;;;;;;;6217104;23;20079;-81
2022/06/24 17:35:36;;;;;;;15.38;11.73;;;;;;;;;;6218506;23;20072;-81
2022/06/24 17:38:08;;;;;;;15.48;11.60;;;;;;;;;;6218380;23;20061;-81
2022/06/24 17:40:38;;;;;;;15.32;12.27;;;;;;;;;;6217122;23;20932;-80
2022/06/24 17:43:11;;;;;;;18.67;11.52;;;;;;;;;;6216997;23;20025;-81
2022/06/24 17:45:47;;;;;;;16.75;11.43;;;;;;;;;;6216442;23;20025;-81